Terminal Aerodrome Forecast
Issued by NWS

Home | Current Version | Previous Version | Text Only | Print | Product List | Glossary On
Versions: 1 2 3 4 5 6 7 8 9 10 11 12 13 14 15 16 17 18 19
000
FTUS43 KICT 180700 AAB
TAFCNU
TAF AMD
KCNU 180713Z 1807/1906 08008KT P6SM VCTS BKN030CB
      TEMPO 1807/1811 3SM TSRA BKN020CB
     FM181200 08007KT 2SM BR OVC004
     FM181500 07007KT 6SM BR OVC012
     FM181800 09008KT P6SM FEW025=

USA.gov is the U.S. government's official web portal to all federal, state and local government web resources and services.